Time;durP1;ratioP1;P1;durP2;ratioP2;P2;SDS_P1;SDS_P2;PMS_P1;PMS_P2;Temp;Humidity;BMP_temperature;BMP_pressure;BME280_temperature;BME280_humidity;BME280_pressure;Samples;Min_cycle;Max_cycle;Signal;HPM_P1;HPM_P2
2022/07/28 00:00:29;;;;;;;4.82;1.60;;;21.30;45.10;;;;;;5034794;28;20044;-59
2022/07/28 00:02:54;;;;;;;5.82;1.50;;;21.30;45.10;;;;;;5045455;28;20064;-62
2022/07/28 00:05:20;;;;;;;2.47;1.42;;;21.30;45.40;;;;;;5039029;28;20072;-60
2022/07/28 00:07:46;;;;;;;3.88;1.60;;;21.20;45.40;;;;;;5024137;28;20025;-62
2022/07/28 00:10:12;;;;;;;3.72;1.60;;;21.20;45.70;;;;;;5037882;28;20029;-63
2022/07/28 00:12:38;;;;;;;3.80;1.40;;;21.20;45.80;;;;;;5027492;28;20021;-61
2022/07/28 00:15:05;;;;;;;6.45;1.50;;;21.20;45.90;;;;;;5050672;28;20040;-61
2022/07/28 00:17:31;;;;;;;4.63;1.48;;;21.20;46.10;;;;;;5025376;28;20026;-61
2022/07/28 00:19:56;;;;;;;6.57;1.40;;;21.20;46.10;;;;;;5046169;28;20092;-62
2022/07/28 00:22:22;;;;;;;2.45;1.40;;;21.20;46.20;;;;;;5040106;28;20029;-61
2022/07/28 00:24:48;;;;;;;2.05;1.52;;;21.10;46.50;;;;;;5055068;28;20379;-62
2022/07/28 00:27:15;;;;;;;5.80;1.50;;;21.10;46.60;;;;;;5031449;28;20055;-62
2022/07/28 00:29:41;;;;;;;1.35;1.15;;;21.10;46.60;;;;;;5041254;28;20053;-62
2022/07/28 00:32:07;;;;;;;3.75;1.63;;;21.10;47.40;;;;;;5045018;28;20044;-61
2022/07/28 00:34:32;;;;;;;3.65;1.50;;;21.00;46.90;;;;;;5041365;28;20030;-62
2022/07/28 00:36:58;;;;;;;12.68;1.60;;;21.00;47.10;;;;;;5043826;28;20025;-62
2022/07/28 00:39:24;;;;;;;3.70;1.40;;;21.00;47.20;;;;;;5026421;28;20033;-61
2022/07/28 00:41:49;;;;;;;1.83;1.23;;;20.90;47.10;;;;;;5045388;28;20029;-61
2022/07/28 00:44:15;;;;;;;6.20;1.60;;;20.90;47.30;;;;;;5031492;28;20397;-62
2022/07/28 00:46:41;;;;;;;5.20;1.77;;;20.90;47.40;;;;;;5049496;28;20033;-61
2022/07/28 00:49:07;;;;;;;5.45;1.35;;;20.90;47.40;;;;;;5044747;28;20089;-61
2022/07/28 00:51:33;;;;;;;4.18;1.63;;;20.80;47.50;;;;;;5046871;28;20104;-61
2022/07/28 00:53:59;;;;;;;3.10;1.58;;;20.80;47.70;;;;;;5047733;28;20033;-61
2022/07/28 00:56:25;;;;;;;3.28;1.73;;;20.80;47.70;;;;;;5046077;28;20036;-61
2022/07/28 00:58:51;;;;;;;2.92;1.58;;;20.80;47.80;;;;;;5040865;28;20049;-61
2022/07/28 01:01:21;;;;;;;2.38;1.45;;;20.80;47.90;;;;;;5073278;28;20025;-60
2022/07/28 01:03:56;;;;;;;3.17;1.60;;;20.80;48.00;;;;;;5050376;28;20049;-60
2022/07/28 01:06:22;;;;;;;1.55;1.30;;;20.70;48.20;;;;;;5038229;28;20057;-61
2022/07/28 01:09:19;;;;;;;2.75;1.40;;;20.70;48.10;;;;;;5027691;28;20483;-62
2022/07/28 01:12:03;;;;;;;2.85;1.52;;;20.70;48.80;;;;;;5033007;28;20029;-62
2022/07/28 01:14:44;;;;;;;3.53;1.90;;;20.70;48.40;;;;;;5039623;28;20060;-62
2022/07/28 01:17:24;;;;;;;4.65;1.55;;;20.70;49.00;;;;;;5041449;28;20025;-61
2022/07/28 01:20:06;;;;;;;3.45;1.67;;;20.70;49.00;;;;;;5041105;28;20117;-63
2022/07/28 01:22:48;;;;;;;9.27;1.50;;;20.60;49.10;;;;;;5035095;28;20080;-62
2022/07/28 01:25:33;;;;;;;6.15;1.40;;;20.60;48.70;;;;;;5044159;28;20055;-61
2022/07/28 01:28:20;;;;;;;2.78;1.30;;;20.60;49.10;;;;;;5027867;28;20190;-62
2022/07/28 01:30:50;;;;;;;2.70;1.35;;;20.60;49.30;;;;;;5039109;28;20116;-60
2022/07/28 01:33:46;;;;;;;2.80;1.30;;;20.60;48.80;;;;;;5035833;28;20085;-61
2022/07/28 01:36:16;;;;;;;5.60;1.38;;;20.60;49.30;;;;;;5037023;28;20061;-61
2022/07/28 01:38:43;;;;;;;4.22;1.42;;;20.50;48.60;;;;;;5044623;28;20026;-62
2022/07/28 01:41:13;;;;;;;3.40;1.35;;;20.50;48.70;;;;;;5047022;28;20033;-62
2022/07/28 01:43:42;;;;;;;4.80;1.50;;;20.40;48.90;;;;;;5043192;28;20465;-61
2022/07/28 01:46:09;;;;;;;2.65;1.40;;;20.40;49.10;;;;;;5048275;28;20472;-61
2022/07/28 01:48:37;;;;;;;4.05;1.60;;;20.40;49.10;;;;;;5037628;28;20518;-61
2022/07/28 01:51:05;;;;;;;2.78;1.23;;;20.40;49.10;;;;;;5048670;28;20034;-61
2022/07/28 01:53:31;;;;;;;4.05;1.60;;;20.30;49.10;;;;;;5028461;28;20022;-61
2022/07/28 01:56:00;;;;;;;2.72;1.50;;;20.20;49.10;;;;;;5039845;28;20136;-62
2022/07/28 01:58:27;;;;;;;2.10;1.65;;;20.10;49.50;;;;;;5062730;28;20036;-61
2022/07/28 02:00:55;;;;;;;3.30;1.60;;;20.10;49.50;;;;;;5040926;28;20026;-61
2022/07/28 02:03:23;;;;;;;2.15;1.40;;;20.00;49.70;;;;;;5049538;28;20101;-61
2022/07/28 02:05:51;;;;;;;2.72;1.55;;;20.00;50.00;;;;;;5033736;28;20028;-62
2022/07/28 02:08:21;;;;;;;4.22;1.67;;;19.90;50.00;;;;;;5045105;28;20033;-61
2022/07/28 02:13:35;;;;;;;2.67;1.60;;;19.80;50.30;;;;;;5037228;28;20063;-60
2022/07/28 02:16:05;;;;;;;3.38;1.88;;;19.70;50.10;;;;;;5050929;28;20025;-61
2022/07/28 02:18:34;;;;;;;5.22;1.85;;;19.70;50.50;;;;;;5049562;28;20041;-60
2022/07/28 02:21:02;;;;;;;4.78;1.55;;;19.70;50.70;;;;;;5043491;28;20033;-61
2022/07/28 02:23:28;;;;;;;3.20;1.70;;;19.60;50.90;;;;;;5041680;28;20040;-61
2022/07/28 02:25:56;;;;;;;5.47;1.42;;;19.50;51.00;;;;;;5032218;28;20033;-60
2022/07/28 02:28:26;;;;;;;3.17;1.80;;;19.50;51.10;;;;;;5050210;28;20045;-61
2022/07/28 02:31:03;;;;;;;3.33;1.50;;;19.50;51.00;;;;;;5044598;28;20051;-61
2022/07/28 02:33:33;;;;;;;2.33;1.60;;;19.40;51.60;;;;;;5043463;28;20407;-61
2022/07/28 02:36:04;;;;;;;3.67;1.63;;;19.40;51.20;;;;;;5037327;28;20029;-61
2022/07/28 02:38:35;;;;;;;4.47;1.65;;;19.30;51.30;;;;;;5030305;28;20036;-61
2022/07/28 02:41:12;;;;;;;5.05;1.65;;;19.30;51.30;;;;;;5039499;28;20063;-61
2022/07/28 02:43:41;;;;;;;4.05;1.98;;;19.20;51.80;;;;;;5031019;28;20021;-61
2022/07/28 02:46:12;;;;;;;5.03;1.75;;;19.10;51.60;;;;;;5043931;28;20021;-61
2022/07/28 02:48:40;;;;;;;5.60;1.58;;;19.10;51.90;;;;;;5059043;28;20046;-62
2022/07/28 02:51:07;;;;;;;3.92;1.65;;;19.10;51.90;;;;;;5037851;28;20032;-62
2022/07/28 02:53:34;;;;;;;5.07;2.05;;;19.00;52.00;;;;;;5046313;28;20025;-61
2022/07/28 02:56:00;;;;;;;3.33;1.98;;;18.90;52.10;;;;;;5037532;28;20020;-62
2022/07/28 02:58:27;;;;;;;5.30;1.90;;;18.90;52.10;;;;;;5035920;28;20030;-60
2022/07/28 03:00:54;;;;;;;3.00;1.95;;;18.80;52.40;;;;;;5050525;28;20029;-61
2022/07/28 03:03:21;;;;;;;3.20;1.55;;;18.70;52.50;;;;;;5038670;28;20036;-61
2022/07/28 03:05:47;;;;;;;4.45;1.60;;;18.70;52.60;;;;;;5053506;28;20036;-61
2022/07/28 03:08:15;;;;;;;3.65;1.60;;;18.70;52.80;;;;;;5027098;28;20652;-62
2022/07/28 03:10:41;;;;;;;3.10;1.77;;;18.60;52.80;;;;;;5034799;28;20065;-61
2022/07/28 03:13:07;;;;;;;3.08;2.00;;;18.60;53.00;;;;;;5042137;28;20029;-61
2022/07/28 03:15:35;;;;;;;2.72;1.70;;;18.50;53.20;;;;;;5063496;28;20024;-61
2022/07/28 03:18:02;;;;;;;3.50;1.83;;;18.60;53.30;;;;;;5030334;28;20041;-61
2022/07/28 03:20:29;;;;;;;3.55;1.92;;;18.60;53.30;;;;;;5063702;28;20044;-61
2022/07/28 03:22:55;;;;;;;5.85;1.90;;;18.60;53.50;;;;;;5028507;28;20029;-61
2022/07/28 03:25:44;;;;;;;1.60;1.50;;;18.50;53.60;;;;;;5056417;28;20075;-61
2022/07/28 03:28:16;;;;;;;2.25;1.67;;;18.50;54.20;;;;;;5046945;28;20049;-61
2022/07/28 03:30:49;;;;;;;3.15;1.80;;;18.50;53.90;;;;;;5054345;28;20048;-61
2022/07/28 03:33:15;;;;;;;3.50;1.70;;;18.50;54.00;;;;;;5040720;28;20034;-60
2022/07/28 03:35:44;;;;;;;4.22;1.88;;;18.40;53.80;;;;;;5057280;28;20054;-61
2022/07/28 03:38:17;;;;;;;2.63;1.73;;;18.40;54.00;;;;;;5029268;28;20101;-61
2022/07/28 03:40:45;;;;;;;3.40;1.98;;;18.40;54.90;;;;;;5057846;28;20049;-62
2022/07/28 03:43:12;;;;;;;3.20;1.60;;;18.30;54.00;;;;;;5054649;28;20085;-62
2022/07/28 03:45:40;;;;;;;2.17;1.80;;;18.30;54.20;;;;;;5054715;28;20037;-61
2022/07/28 03:48:06;;;;;;;4.32;2.00;;;18.30;54.30;;;;;;5051013;28;20105;-62
2022/07/28 03:50:33;;;;;;;1.95;1.75;;;18.20;54.30;;;;;;5044353;28;20033;-60
2022/07/28 03:53:03;;;;;;;4.10;1.90;;;18.20;54.50;;;;;;5044975;28;20044;-63
2022/07/28 03:55:29;;;;;;;5.10;1.98;;;18.20;54.60;;;;;;5043898;28;20059;-61
2022/07/28 03:57:57;;;;;;;3.88;2.05;;;18.10;54.40;;;;;;5036125;28;20037;-62
2022/07/28 04:00:24;;;;;;;2.88;1.67;;;18.10;54.60;;;;;;5036475;28;20044;-62
2022/07/28 04:02:50;;;;;;;3.80;1.90;;;18.00;54.70;;;;;;5045469;28;20029;-60
2022/07/28 04:05:17;;;;;;;3.70;1.70;;;18.00;54.70;;;;;;5059383;28;20151;-61
2022/07/28 04:07:44;;;;;;;3.42;1.75;;;18.00;54.80;;;;;;5043063;28;20040;-60
2022/07/28 04:10:12;;;;;;;4.25;2.20;;;18.00;54.90;;;;;;5038811;28;20053;-60
2022/07/28 04:12:48;;;;;;;4.75;1.95;;;17.90;55.10;;;;;;5040778;28;20033;-63
2022/07/28 04:15:14;;;;;;;6.25;2.78;;;17.90;55.60;;;;;;5062470;28;20112;-62
2022/07/28 04:17:44;;;;;;;2.40;1.73;;;17.90;55.80;;;;;;5058312;28;20144;-62
2022/07/28 04:20:10;;;;;;;9.27;2.08;;;17.90;55.20;;;;;;5040187;28;20043;-62
2022/07/28 04:22:36;;;;;;;5.90;2.33;;;17.90;55.40;;;;;;5027915;28;20040;-61
2022/07/28 04:25:03;;;;;;;3.15;2.15;;;17.90;55.50;;;;;;5040306;28;20048;-60
2022/07/28 04:27:29;;;;;;;4.80;2.08;;;17.90;55.70;;;;;;5033077;28;20497;-62
2022/07/28 04:29:55;;;;;;;6.63;2.30;;;17.80;55.60;;;;;;5025776;28;20109;-61
2022/07/28 04:32:20;;;;;;;4.00;2.30;;;17.90;55.90;;;;;;5046449;28;20033;-61
2022/07/28 04:34:47;;;;;;;6.82;2.05;;;17.90;56.00;;;;;;5036730;28;20037;-61
2022/07/28 04:37:13;;;;;;;4.70;2.38;;;17.90;56.10;;;;;;5050351;28;20044;-63
2022/07/28 04:39:39;;;;;;;6.75;2.80;;;17.90;56.10;;;;;;5049853;28;20029;-61
2022/07/28 04:42:05;;;;;;;5.55;2.20;;;18.00;56.40;;;;;;5040080;28;20042;-63
2022/07/28 04:44:32;;;;;;;5.22;1.92;;;18.00;56.50;;;;;;5044040;28;20251;-60
2022/07/28 04:46:58;;;;;;;7.03;2.28;;;18.00;56.60;;;;;;5048103;28;20032;-60
2022/07/28 04:49:23;;;;;;;6.90;2.60;;;18.10;56.50;;;;;;5037513;28;20061;-61
2022/07/28 04:51:51;;;;;;;3.50;2.10;;;18.20;57.20;;;;;;5054194;28;20089;-61
2022/07/28 04:54:17;;;;;;;4.55;2.45;;;18.30;56.60;;;;;;5049568;28;20026;-63
2022/07/28 04:56:43;;;;;;;4.57;2.13;;;18.40;56.50;;;;;;5062367;28;20029;-61
2022/07/28 04:59:09;;;;;;;8.02;2.70;;;18.40;56.50;;;;;;5045346;28;20120;-61
2022/07/28 05:01:37;;;;;;;7.88;2.85;;;18.50;56.50;;;;;;5030655;28;20094;-62
2022/07/28 05:04:04;;;;;;;6.07;2.60;;;18.60;56.60;;;;;;5032788;28;20036;-62
2022/07/28 05:06:30;;;;;;;6.53;3.10;;;18.60;56.50;;;;;;5041535;28;20089;-62
2022/07/28 05:08:56;;;;;;;8.15;3.58;;;18.70;56.50;;;;;;5062944;28;20048;-60
2022/07/28 05:11:21;;;;;;;10.07;3.28;;;18.70;56.70;;;;;;5029093;28;20069;-60
2022/07/28 05:13:47;;;;;;;6.30;3.28;;;18.80;56.70;;;;;;5054747;28;20021;-61
2022/07/28 05:16:12;;;;;;;8.80;3.53;;;18.80;56.60;;;;;;5046263;28;20041;-60
2022/07/28 05:18:38;;;;;;;9.15;3.70;;;18.90;56.50;;;;;;5031174;28;20044;-61
2022/07/28 05:21:04;;;;;;;6.90;3.60;;;18.90;56.60;;;;;;5053449;28;20105;-60
2022/07/28 05:23:29;;;;;;;9.50;4.00;;;19.00;56.50;;;;;;5026568;28;20048;-61
2022/07/28 05:25:55;;;;;;;10.60;4.07;;;19.00;56.70;;;;;;4992035;28;20489;-60
2022/07/28 05:28:21;;;;;;;6.78;3.78;;;19.10;56.80;;;;;;5037656;28;20107;-61
2022/07/28 05:30:46;;;;;;;8.93;3.80;;;19.20;57.10;;;;;;5049684;28;20025;-61
2022/07/28 05:33:14;;;;;;;4.78;3.50;;;19.30;56.80;;;;;;5027949;28;20477;-61
2022/07/28 05:35:40;;;;;;;7.85;3.97;;;19.40;56.90;;;;;;5044031;28;20068;-61
2022/07/28 05:38:05;;;;;;;5.72;3.97;;;19.60;56.80;;;;;;5043311;28;20085;-62
2022/07/28 05:40:31;;;;;;;6.95;4.13;;;19.70;56.70;;;;;;5054516;28;20029;-61
2022/07/28 05:42:57;;;;;;;5.43;4.10;;;19.90;56.60;;;;;;5037907;28;20030;-61
2022/07/28 05:45:23;;;;;;;6.95;4.18;;;20.00;56.60;;;;;;5040554;28;20045;-62
2022/07/28 05:47:51;;;;;;;9.30;4.65;;;20.10;56.40;;;;;;5038146;28;20026;-62
2022/07/28 05:50:19;;;;;;;6.80;4.30;;;20.20;56.50;;;;;;5047228;28;20063;-62
2022/07/28 05:52:46;;;;;;;7.03;4.03;;;20.40;56.40;;;;;;5042393;28;20278;-61
2022/07/28 05:55:12;;;;;;;7.97;4.22;;;20.50;56.00;;;;;;5059469;28;20022;-61
2022/07/28 05:57:39;;;;;;;6.95;4.32;;;20.60;55.90;;;;;;5046373;28;20026;-60
2022/07/28 06:00:10;;;;;;;10.13;4.20;;;20.70;55.70;;;;;;5036186;28;20030;-61
2022/07/28 06:02:36;;;;;;;7.57;4.10;;;20.90;55.60;;;;;;5033221;28;20057;-62
2022/07/28 06:05:01;;;;;;;7.25;4.18;;;21.00;55.30;;;;;;5030527;28;20058;-61
2022/07/28 06:07:27;;;;;;;6.28;4.20;;;21.10;55.10;;;;;;5037650;28;20030;-62
2022/07/28 06:09:53;;;;;;;9.70;4.32;;;21.20;55.00;;;;;;5060146;28;20096;-62
2022/07/28 06:12:18;;;;;;;7.15;4.45;;;21.30;55.40;;;;;;5055045;28;20045;-61
2022/07/28 06:14:44;;;;;;;7.07;4.22;;;21.40;54.70;;;;;;5025687;28;20081;-61
2022/07/28 06:17:10;;;;;;;16.05;4.38;;;21.50;54.50;;;;;;5047698;28;20025;-62
2022/07/28 06:19:35;;;;;;;7.28;3.97;;;21.60;54.30;;;;;;5040587;28;20492;-62
2022/07/28 06:22:02;;;;;;;8.25;4.50;;;21.70;54.20;;;;;;5047806;28;20071;-63
2022/07/28 06:24:28;;;;;;;9.88;4.70;;;21.80;54.20;;;;;;5052986;28;20033;-62
2022/07/28 06:26:54;;;;;;;9.73;4.35;;;21.90;54.10;;;;;;5038575;28;20025;-61
2022/07/28 06:29:21;;;;;;;7.15;4.13;;;22.00;53.90;;;;;;5042558;28;20046;-62
2022/07/28 06:31:47;;;;;;;6.65;4.50;;;22.10;53.80;;;;;;5050460;28;20032;-61
2022/07/28 06:34:13;;;;;;;8.00;3.80;;;22.20;53.70;;;;;;5043508;28;20040;-62
2022/07/28 06:36:38;;;;;;;8.98;4.78;;;22.30;53.70;;;;;;5036658;28;20117;-61
2022/07/28 06:39:04;;;;;;;8.38;4.28;;;22.40;53.40;;;;;;5025362;28;20030;-61
2022/07/28 06:41:30;;;;;;;16.77;4.15;;;22.50;53.20;;;;;;5042876;28;20041;-63
2022/07/28 06:43:56;;;;;;;12.02;4.35;;;22.50;53.20;;;;;;5061067;28;20033;-62
2022/07/28 06:46:21;;;;;;;10.90;4.68;;;22.60;53.20;;;;;;5043896;28;20390;-61
2022/07/28 06:48:48;;;;;;;7.65;4.40;;;22.60;53.00;;;;;;5035593;28;20101;-63
2022/07/28 06:51:17;;;;;;;8.35;4.55;;;22.70;53.10;;;;;;5040045;28;20034;-61
2022/07/28 06:53:44;;;;;;;7.30;4.70;;;22.80;53.10;;;;;;5038814;28;20026;-63
2022/07/28 06:56:09;;;;;;;7.72;4.43;;;22.90;52.80;;;;;;5047833;28;20025;-61
2022/07/28 06:58:35;;;;;;;10.52;4.57;;;22.90;52.80;;;;;;5038420;28;20056;-62
2022/07/28 07:01:06;;;;;;;10.10;4.57;;;23.10;52.70;;;;;;5061081;28;20098;-62
2022/07/28 07:03:32;;;;;;;9.77;4.07;;;23.10;52.70;;;;;;5041365;28;20047;-61
2022/07/28 07:05:57;;;;;;;7.65;4.30;;;23.20;52.60;;;;;;5053184;28;20037;-62
2022/07/28 07:08:23;;;;;;;6.10;3.78;;;23.30;52.50;;;;;;5042328;28;20026;-62
2022/07/28 07:10:48;;;;;;;8.15;4.63;;;23.40;52.50;;;;;;5047627;28;20029;-62
2022/07/28 07:13:14;;;;;;;7.10;4.25;;;23.50;52.40;;;;;;5038141;28;20037;-62
2022/07/28 07:15:40;;;;;;;6.95;4.00;;;23.60;52.20;;;;;;5050996;28;20029;-62
2022/07/28 07:18:06;;;;;;;8.65;4.40;;;23.70;52.20;;;;;;5049090;28;20104;-61
2022/07/28 07:20:32;;;;;;;7.40;4.30;;;23.80;52.20;;;;;;5046498;28;20072;-61
2022/07/28 07:22:57;;;;;;;5.32;3.75;;;23.90;52.00;;;;;;5038761;28;20034;-61
2022/07/28 07:25:23;;;;;;;7.05;3.85;;;24.00;52.10;;;;;;5043857;28;20052;-62
2022/07/28 07:27:49;;;;;;;7.32;3.97;;;24.20;51.70;;;;;;5049144;28;20044;-62
2022/07/28 07:30:15;;;;;;;5.43;3.95;;;24.30;51.30;;;;;;5044787;28;20500;-63
2022/07/28 07:32:42;;;;;;;7.03;3.72;;;24.40;51.40;;;;;;5047420;28;20024;-63
2022/07/28 07:35:08;;;;;;;8.25;3.60;;;24.50;51.20;;;;;;5056511;28;20075;-63
2022/07/28 07:37:34;;;;;;;5.00;3.70;;;24.50;51.10;;;;;;5043540;28;20060;-63
2022/07/28 07:40:02;;;;;;;7.07;4.28;;;24.60;51.00;;;;;;5049230;28;20029;-62
2022/07/28 07:42:28;;;;;;;7.45;4.00;;;24.70;51.00;;;;;;5040921;28;20026;-61
2022/07/28 07:44:54;;;;;;;5.35;3.80;;;24.80;50.80;;;;;;5042404;28;20067;-62
2022/07/28 07:47:19;;;;;;;4.63;3.78;;;24.90;50.80;;;;;;5038304;28;20034;-62
2022/07/28 07:49:45;;;;;;;5.45;3.38;;;25.00;50.70;;;;;;5043785;28;20137;-61
2022/07/28 07:52:11;;;;;;;6.72;3.33;;;25.10;50.60;;;;;;5034268;28;20085;-62
2022/07/28 07:54:36;;;;;;;4.88;3.65;;;25.20;50.50;;;;;;5042274;28;20029;-62
2022/07/28 07:57:02;;;;;;;6.82;3.90;;;25.30;50.30;;;;;;5033673;28;20037;-61
2022/07/28 07:59:29;;;;;;;4.90;3.45;;;25.40;50.10;;;;;;5043733;28;20038;-63
2022/07/28 08:01:55;;;;;;;5.28;3.63;;;25.40;50.00;;;;;;5040254;28;20026;-62
2022/07/28 08:04:22;;;;;;;5.25;3.80;;;25.50;50.20;;;;;;5042779;28;20033;-62
2022/07/28 08:06:48;;;;;;;6.47;3.28;;;25.60;50.00;;;;;;5037978;28;20038;-61
2022/07/28 08:09:14;;;;;;;5.35;3.63;;;25.70;49.70;;;;;;5041638;28;20053;-63
2022/07/28 08:11:40;;;;;;;7.80;3.85;;;25.70;49.60;;;;;;5038089;28;20026;-61
2022/07/28 08:14:06;;;;;;;7.38;3.88;;;25.80;49.40;;;;;;5043523;28;20487;-62
2022/07/28 08:16:32;;;;;;;5.22;3.38;;;25.90;49.30;;;;;;5060925;28;20047;-62
2022/07/28 08:18:57;;;;;;;5.85;3.50;;;26.00;49.50;;;;;;5043773;28;20021;-62
2022/07/28 08:21:24;;;;;;;4.82;3.20;;;26.00;50.00;;;;;;5037887;28;20057;-62
2022/07/28 08:23:51;;;;;;;6.30;3.38;;;26.20;49.60;;;;;;5043944;28;20053;-64
2022/07/28 08:26:17;;;;;;;9.70;3.47;;;26.20;49.30;;;;;;5038544;28;20044;-62
2022/07/28 08:28:43;;;;;;;5.90;3.28;;;26.30;48.80;;;;;;5045260;28;20037;-63
2022/07/28 08:31:09;;;;;;;9.02;3.83;;;26.50;48.90;;;;;;5038141;28;20089;-63
2022/07/28 08:33:34;;;;;;;7.05;3.20;;;26.60;48.50;;;;;;5030821;28;20033;-62
2022/07/28 08:36:00;;;;;;;7.07;3.20;;;26.70;48.50;;;;;;5037665;28;20053;-62
2022/07/28 08:38:26;;;;;;;8.88;3.67;;;26.80;48.10;;;;;;5029648;28;20062;-61
2022/07/28 08:40:55;;;;;;;8.13;3.88;;;26.80;48.30;;;;;;5041207;28;20119;-62
2022/07/28 08:43:37;;;;;;;5.63;3.30;;;26.90;47.50;;;;;;5041291;28;20036;-63
2022/07/28 08:46:05;;;;;;;5.85;3.15;;;26.90;46.70;;;;;;5036798;28;20108;-62
2022/07/28 08:48:32;;;;;;;4.60;3.38;;;27.00;47.20;;;;;;5037032;28;20079;-63
2022/07/28 08:51:08;;;;;;;8.10;3.35;;;27.00;47.00;;;;;;5031350;28;20092;-63
2022/07/28 08:53:36;;;;;;;7.05;3.33;;;27.10;47.40;;;;;;5038151;28;20037;-62
2022/07/28 08:56:11;;;;;;;6.30;3.88;;;27.10;48.30;;;;;;5032536;28;20026;-62
2022/07/28 08:58:38;;;;;;;8.20;3.70;;;27.20;47.80;;;;;;5032283;28;20029;-63
2022/07/28 09:01:09;;;;;;;7.03;4.03;;;27.30;47.60;;;;;;5046614;28;20116;-62
2022/07/28 09:03:36;;;;;;;5.40;3.50;;;27.40;47.10;;;;;;5030844;28;20761;-62
2022/07/28 09:06:02;;;;;;;6.78;3.47;;;27.50;46.80;;;;;;5037540;28;20030;-63
2022/07/28 09:08:27;;;;;;;5.10;2.92;;;27.60;46.90;;;;;;5030953;28;20116;-63
2022/07/28 09:10:54;;;;;;;6.20;2.80;;;27.70;46.80;;;;;;5044632;28;20043;-62
2022/07/28 09:13:19;;;;;;;4.63;3.15;;;27.80;46.50;;;;;;5043748;28;20033;-63
2022/07/28 09:15:46;;;;;;;6.88;3.05;;;27.90;46.40;;;;;;5036800;28;20030;-62
2022/07/28 09:18:12;;;;;;;6.63;2.88;;;28.00;46.70;;;;;;5046627;28;20549;-62
2022/07/28 09:20:40;;;;;;;6.80;3.20;;;28.10;45.90;;;;;;5037636;28;20029;-63
2022/07/28 09:23:07;;;;;;;4.28;2.83;;;28.20;45.80;;;;;;5045829;28;20041;-62
2022/07/28 09:25:33;;;;;;;7.15;3.10;;;28.30;45.30;;;;;;5044265;28;20069;-61
2022/07/28 09:28:16;;;;;;;4.72;2.88;;;28.30;45.30;;;;;;4977380;28;20547;-62
2022/07/28 09:30:45;;;;;;;9.13;3.08;;;28.40;44.70;;;;;;5042881;28;20033;-63
2022/07/28 09:33:31;;;;;;;8.35;3.22;;;28.50;45.20;;;;;;5038945;28;20038;-62
2022/07/28 09:35:58;;;;;;;5.60;3.17;;;28.60;44.30;;;;;;5029234;28;20030;-63
2022/07/28 09:38:26;;;;;;;5.45;3.35;;;28.70;44.60;;;;;;5042787;28;20037;-61
2022/07/28 09:41:05;;;;;;;5.75;2.65;;;28.70;43.80;;;;;;5033553;28;20034;-63
2022/07/28 09:43:42;;;;;;;4.97;2.72;;;28.80;43.50;;;;;;5038165;28;20029;-62
2022/07/28 09:46:15;;;;;;;4.50;2.63;;;28.90;43.70;;;;;;5041189;28;20044;-62
2022/07/28 09:48:47;;;;;;;5.50;3.20;;;28.90;43.40;;;;;;5034545;28;20033;-62
2022/07/28 09:51:13;;;;;;;4.93;2.95;;;29.00;42.80;;;;;;5036043;28;20029;-62
2022/07/28 09:53:40;;;;;;;5.32;2.80;;;29.10;43.50;;;;;;5041478;28;20033;-62
2022/07/28 09:56:06;;;;;;;3.67;2.50;;;29.10;43.50;;;;;;5037829;28;20486;-62
2022/07/28 09:58:32;;;;;;;5.88;2.78;;;29.20;42.70;;;;;;5043594;28;20045;-63
2022/07/28 10:01:08;;;;;;;5.47;3.30;;;29.30;42.50;;;;;;5040367;28;20033;-63
2022/07/28 10:03:39;;;;;;;4.47;2.58;;;29.40;42.60;;;;;;5036919;28;20034;-63
2022/07/28 10:06:10;;;;;;;4.13;2.55;;;29.50;42.00;;;;;;5022631;28;20041;-62
2022/07/28 10:08:50;;;;;;;6.50;2.80;;;29.50;41.70;;;;;;5034989;28;20045;-61
2022/07/28 10:11:18;;;;;;;4.47;2.40;;;29.50;39.70;;;;;;5023855;28;20057;-62
2022/07/28 10:13:51;;;;;;;4.82;2.58;;;29.60;41.20;;;;;;5042709;28;20037;-63
2022/07/28 10:16:18;;;;;;;4.53;2.67;;;29.60;41.00;;;;;;5024076;28;20036;-64
2022/07/28 10:18:46;;;;;;;4.65;2.60;;;29.70;41.30;;;;;;5023789;28;20021;-63
2022/07/28 10:21:14;;;;;;;5.40;2.90;;;29.70;41.60;;;;;;5036110;28;20026;-62
2022/07/28 10:23:48;;;;;;;7.32;2.90;;;29.80;41.40;;;;;;5028717;28;20107;-61
2022/07/28 10:26:15;;;;;;;7.40;2.67;;;29.80;41.00;;;;;;4904356;28;20025;-62
2022/07/28 10:28:48;;;;;;;5.60;2.67;;;29.90;41.20;;;;;;5038771;28;20061;-62
2022/07/28 10:31:21;;;;;;;7.80;2.65;;;30.00;40.20;;;;;;5027717;28;20037;-63
2022/07/28 10:33:50;;;;;;;5.75;3.03;;;30.10;40.40;;;;;;5051399;28;20030;-64
2022/07/28 10:36:21;;;;;;;4.57;2.42;;;30.20;40.50;;;;;;5037528;28;20124;-63
2022/07/28 10:38:48;;;;;;;8.85;2.38;;;30.20;40.60;;;;;;5037126;28;20091;-63
2022/07/28 10:41:18;;;;;;;4.25;2.72;;;30.20;40.30;;;;;;5040412;28;20040;-61
2022/07/28 10:43:45;;;;;;;6.70;2.58;;;30.20;39.60;;;;;;5034362;28;20056;-62
2022/07/28 10:46:11;;;;;;;5.10;2.55;;;30.20;39.80;;;;;;5042585;28;20021;-62
2022/07/28 10:48:37;;;;;;;5.20;2.50;;;30.20;40.10;;;;;;5032469;28;20033;-62
2022/07/28 10:51:03;;;;;;;4.72;2.60;;;30.20;40.70;;;;;;5047829;28;20034;-60
2022/07/28 10:53:45;;;;;;;5.28;2.90;;;30.20;40.10;;;;;;5049069;28;20208;-63
2022/07/28 10:56:50;;;;;;;9.70;2.83;;;30.30;39.70;;;;;;5031391;28;20029;-62
2022/07/28 10:59:47;;;;;;;8.98;2.90;;;30.40;39.30;;;;;;5038168;28;20060;-63
2022/07/28 11:03:02;;;;;;;18.90;4.05;;;30.50;40.00;;;;;;5042414;28;20033;-64
2022/07/28 11:05:41;;;;;;;13.88;4.28;;;30.50;38.80;;;;;;5031789;28;20046;-62
2022/07/28 11:08:25;;;;;;;14.30;3.20;;;30.60;40.10;;;;;;5045778;28;20032;-61
2022/07/28 11:10:51;;;;;;;;;;;30.70;39.20;;;;;;5039036;28;20115;-62
2022/07/28 11:13:31;;;;;;;26.25;5.20;;;30.70;39.50;;;;;;5056103;28;19912;-61
2022/07/28 11:16:20;;;;;;;6.20;2.85;;;30.90;39.70;;;;;;5024401;28;20022;-62
2022/07/28 11:19:01;;;;;;;3.00;1.85;;;31.00;39.40;;;;;;5042813;28;20029;-62
2022/07/28 11:21:27;;;;;;;6.05;2.83;;;31.10;37.80;;;;;;5046438;28;20030;-61
2022/07/28 11:23:54;;;;;;;7.28;2.17;;;31.20;38.20;;;;;;5044417;28;20036;-62
2022/07/28 11:26:21;;;;;;;4.50;2.17;;;31.20;38.30;;;;;;5034102;28;20040;-60
2022/07/28 11:28:59;;;;;;;5.10;2.05;;;31.30;38.00;;;;;;5028684;28;20579;-60
2022/07/28 11:31:43;;;;;;;3.55;2.03;;;31.30;36.80;;;;;;5043904;28;20036;-60
2022/07/28 11:34:09;;;;;;;;;;;31.40;37.90;;;;;;5032140;28;20028;-62
2022/07/28 11:36:57;;;;;;;4.95;2.08;;;31.30;38.70;;;;;;5040080;28;19928;-61
2022/07/28 11:39:28;;;;;;;6.13;2.25;;;31.40;37.70;;;;;;5039629;28;20022;-61
2022/07/28 11:41:53;;;;;;;5.60;2.10;;;31.50;38.20;;;;;;5033060;28;20061;-61
2022/07/28 11:44:26;;;;;;;5.63;2.05;;;31.60;38.10;;;;;;5035832;28;20044;-60
2022/07/28 11:47:11;;;;;;;3.65;1.85;;;31.70;37.30;;;;;;5038352;28;20041;-62
2022/07/28 11:49:37;;;;;;;4.18;1.58;;;31.80;36.60;;;;;;5041097;28;20030;-63
2022/07/28 11:52:14;;;;;;;3.35;1.77;;;31.80;36.80;;;;;;5035899;28;20107;-63
2022/07/28 11:54:42;;;;;;;3.63;1.98;;;31.80;35.70;;;;;;5041929;28;20095;-61
2022/07/28 11:57:09;;;;;;;4.95;2.30;;;31.80;36.30;;;;;;5052247;28;20033;-62
2022/07/28 11:59:42;;;;;;;3.67;2.10;;;31.80;36.10;;;;;;5043913;28;20036;-62
2022/07/28 12:02:08;;;;;;;7.72;2.22;;;31.80;35.80;;;;;;5053852;28;20514;-61
2022/07/28 12:04:33;;;;;;;4.68;2.05;;;31.80;36.00;;;;;;5043840;28;20045;-63
2022/07/28 12:07:00;;;;;;;5.40;1.88;;;31.80;35.90;;;;;;5043531;28;20040;-62
2022/07/28 12:09:32;;;;;;;2.45;1.77;;;31.80;36.50;;;;;;5045023;28;20046;-61
2022/07/28 12:11:58;;;;;;;3.45;2.10;;;31.80;36.60;;;;;;5042943;28;20057;-63
2022/07/28 12:14:30;;;;;;;6.10;2.38;;;31.80;36.40;;;;;;5030447;28;20038;-63
2022/07/28 12:16:55;;;;;;;7.03;1.92;;;31.80;35.90;;;;;;5030903;28;20036;-61
2022/07/28 12:19:22;;;;;;;3.05;1.75;;;31.90;36.00;;;;;;5031792;28;20025;-61
2022/07/28 12:21:52;;;;;;;4.15;1.88;;;32.00;35.60;;;;;;5032456;28;20092;-62
2022/07/28 12:24:29;;;;;;;3.35;1.80;;;32.00;35.50;;;;;;5036675;28;20041;-61
2022/07/28 12:26:56;;;;;;;5.75;1.73;;;31.90;35.50;;;;;;5032099;28;20029;-62
2022/07/28 12:29:22;;;;;;;3.60;1.90;;;31.80;36.00;;;;;;5045225;28;20073;-64
2022/07/28 12:32:03;;;;;;;11.70;1.90;;;31.90;35.60;;;;;;5033357;28;20029;-61
2022/07/28 12:34:30;;;;;;;4.35;1.88;;;31.90;34.80;;;;;;5037838;28;20026;-62
2022/07/28 12:37:00;;;;;;;4.22;2.08;;;31.90;35.00;;;;;;5039177;28;20548;-62
2022/07/28 12:39:27;;;;;;;3.75;1.85;;;31.80;34.30;;;;;;5044038;28;20035;-62
2022/07/28 12:42:04;;;;;;;2.80;1.80;;;31.70;34.70;;;;;;5026275;28;20503;-63
2022/07/28 12:44:37;;;;;;;3.53;2.05;;;31.70;35.00;;;;;;5028004;28;20504;-60
2022/07/28 12:47:06;;;;;;;6.57;2.20;;;31.70;35.10;;;;;;5055176;28;20060;-61
2022/07/28 12:49:32;;;;;;;13.35;2.10;;;31.80;34.90;;;;;;5037622;28;20022;-62
2022/07/28 12:52:12;;;;;;;4.25;1.90;;;31.80;34.90;;;;;;5060327;28;20026;-60
2022/07/28 12:54:38;;;;;;;5.60;2.17;;;31.80;35.00;;;;;;5038879;28;20026;-61
2022/07/28 12:57:04;;;;;;;7.22;2.08;;;31.80;35.00;;;;;;5061530;28;20036;-63
2022/07/28 12:59:34;;;;;;;5.55;1.77;;;31.70;35.10;;;;;;5035302;28;20141;-62